AAL7760 KPHL-LGAV
Flight info
| Callsign | AAL7760 |
|---|---|
| Flight time | N/A |
| Altitude | 39000 |
| Route | DITCH DCT LUIGI DCT HNNAH DCT JFK DCT FOXWD DCT ALLEX N503B ALLRY/M081F390 DCT 51N050W 52N040W 53N030W 53N020W DCT LIMRI DCT XETBO/N0462F390 DCT LESLU DCT LIZAD DCT JSY DCT TURDU DCT TADUP DCT TEPRI DCT POGZI DCT GELTA DCT LUVAL DCT SHARA DCT DEVDI DCT RIPUS DCT RESIA DCT IXONA DCT SAL DCT UVODI DCT AMUGO DCT KOFER DCT PINDO DCT KOGIS DCT SKP UM749 ROPOX |
| Aircraft | A333/H-SDE3GHIJ2J3J5M1RVWXY/LB2D1 |
Departure
| Time | 2026-05-07 04:58 |
|---|---|
| Airport | Philadelphia International Airport (KPHL) |
Arrival
| Time | N/A |
|---|---|
| Airport | Athens Eleftherios Venizelos International Airport (LGAV) |
| Time | Latitude | Longitude | Altitude | Speed | Heading |
|---|---|---|---|---|---|
| 2026-05-07 04:40 | 39.87405 | -75.25051 | 29 ft | 0 kts | 334° |
| 2026-05-07 04:47 | 39.87401 | -75.25048 | 28 ft | 3 kts | 334° |
| 2026-05-07 04:47 | 39.87385 | -75.25038 | 28 ft | 3 kts | 334° |
| 2026-05-07 04:47 | 39.87368 | -75.25028 | 28 ft | 3 kts | 328° |
| 2026-05-07 04:48 | 39.87354 | -75.25011 | 28 ft | 3 kts | 283° |
| 2026-05-07 04:48 | 39.87353 | -75.24990 | 25 ft | 0 kts | 244° |
| 2026-05-07 04:50 | 39.87348 | -75.24996 | 27 ft | 3 kts | 225° |
| 2026-05-07 04:50 | 39.87307 | -75.24995 | 29 ft | 10 kts | 175° |
| 2026-05-07 04:51 | 39.87221 | -75.24968 | 29 ft | 16 kts | 166° |
| 2026-05-07 04:51 | 39.87126 | -75.24930 | 29 ft | 8 kts | 144° |
| 2026-05-07 04:51 | 39.87120 | -75.24882 | 29 ft | 6 kts | 82° |
| 2026-05-07 04:51 | 39.87136 | -75.24802 | 29 ft | 12 kts | 75° |
| 2026-05-07 04:52 | 39.87161 | -75.24678 | 29 ft | 15 kts | 77° |
| 2026-05-07 04:52 | 39.87188 | -75.24539 | 29 ft | 16 kts | 76° |
| 2026-05-07 04:52 | 39.87217 | -75.24389 | 29 ft | 17 kts | 75° |
| 2026-05-07 04:52 | 39.87243 | -75.24261 | 29 ft | 12 kts | 75° |
| 2026-05-07 04:53 | 39.87243 | -75.24182 | 29 ft | 6 kts | 112° |
| 2026-05-07 04:53 | 39.87203 | -75.24134 | 29 ft | 10 kts | 147° |
| 2026-05-07 04:53 | 39.87128 | -75.24092 | 29 ft | 13 kts | 164° |
| 2026-05-07 04:53 | 39.87055 | -75.24067 | 29 ft | 9 kts | 165° |
| 2026-05-07 04:54 | 39.87009 | -75.24052 | 29 ft | 6 kts | 166° |
| 2026-05-07 04:54 | 39.86961 | -75.24036 | 29 ft | 8 kts | 165° |
| 2026-05-07 04:54 | 39.86914 | -75.23987 | 29 ft | 10 kts | 108° |
| 2026-05-07 04:54 | 39.86922 | -75.23892 | 29 ft | 11 kts | 77° |
| 2026-05-07 04:55 | 39.86936 | -75.23814 | 29 ft | 7 kts | 76° |
| 2026-05-07 04:55 | 39.86950 | -75.23743 | 29 ft | 9 kts | 75° |
| 2026-05-07 04:55 | 39.86968 | -75.23654 | 29 ft | 11 kts | 74° |
| 2026-05-07 04:55 | 39.86984 | -75.23578 | 29 ft | 7 kts | 76° |
| 2026-05-07 04:56 | 39.86993 | -75.23533 | 29 ft | 3 kts | 77° |
| 2026-05-07 04:56 | 39.87002 | -75.23475 | 29 ft | 10 kts | 79° |
| 2026-05-07 04:56 | 39.86978 | -75.23424 | 29 ft | 5 kts | 149° |
| 2026-05-07 04:56 | 39.86952 | -75.23411 | 29 ft | 4 kts | 161° |
| 2026-05-07 04:57 | 39.86910 | -75.23415 | 32 ft | 5 kts | 212° |
| 2026-05-07 04:57 | 39.86895 | -75.23455 | 29 ft | 5 kts | 251° |
| 2026-05-07 04:57 | 39.86858 | -75.23619 | 29 ft | 43 kts | 254° |
| 2026-05-07 04:57 | 39.86742 | -75.24236 | 29 ft | 97 kts | 256° |
| 2026-05-07 04:58 | 39.86530 | -75.25301 | 29 ft | 145 kts | 255° |
| 2026-05-07 04:58 | 39.86229 | -75.26761 | 141 ft | 181 kts | 261° |
| 2026-05-07 04:58 | 39.85903 | -75.28428 | 510 ft | 196 kts | 258° |
| 2026-05-07 04:58 | 39.85568 | -75.30081 | 1164 ft | 182 kts | 259° |
| 2026-05-07 04:59 | 39.85246 | -75.31651 | 1719 ft | 180 kts | 257° |
| 2026-05-07 04:59 | 39.84504 | -75.33046 | 1885 ft | 206 kts | 216° |
| 2026-05-07 04:59 | 39.83033 | -75.33483 | 1966 ft | 236 kts | 173° |
| 2026-05-07 04:59 | 39.81522 | -75.32537 | 2085 ft | 258 kts | 134° |
| 2026-05-07 05:00 | 39.80360 | -75.30673 | 2305 ft | 273 kts | 122° |
| 2026-05-07 05:00 | 39.79597 | -75.28364 | 2660 ft | 281 kts | 105° |
| 2026-05-07 05:00 | 39.79235 | -75.25845 | 3110 ft | 285 kts | 96° |
| 2026-05-07 05:00 | 39.79122 | -75.23258 | 3586 ft | 287 kts | 91° |
| 2026-05-07 05:01 | 39.79140 | -75.20661 | 4165 ft | 288 kts | 90° |
| 2026-05-07 05:01 | 39.79207 | -75.18062 | 4677 ft | 292 kts | 90° |
| 2026-05-07 05:01 | 39.79277 | -75.15400 | 5150 ft | 296 kts | 91° |
| 2026-05-07 05:01 | 39.79331 | -75.12690 | 5587 ft | 302 kts | 91° |
| 2026-05-07 05:02 | 39.79365 | -75.09937 | 6063 ft | 307 kts | 92° |
| 2026-05-07 05:02 | 39.79377 | -75.07176 | 6554 ft | 311 kts | 94° |
| 2026-05-07 05:02 | 39.79379 | -75.04322 | 6930 ft | 319 kts | 93° |
| 2026-05-07 05:02 | 39.79380 | -75.01402 | 7414 ft | 323 kts | 94° |
| 2026-05-07 05:03 | 39.79384 | -74.98464 | 7943 ft | 326 kts | 94° |
| 2026-05-07 05:03 | 39.79384 | -74.95496 | 8496 ft | 329 kts | 94° |
| 2026-05-07 05:03 | 39.79383 | -74.92535 | 8985 ft | 334 kts | 94° |
| 2026-05-07 05:03 | 39.79386 | -74.89499 | 9492 ft | 337 kts | 94° |
| 2026-05-07 05:04 | 39.79388 | -74.86432 | 9965 ft | 340 kts | 94° |
| 2026-05-07 05:04 | 39.79388 | -74.83315 | 10250 ft | 351 kts | 94° |
| 2026-05-07 05:04 | 39.79384 | -74.80074 | 10434 ft | 364 kts | 94° |
| 2026-05-07 05:04 | 39.79399 | -74.76720 | 10593 ft | 379 kts | 89° |
| 2026-05-07 05:05 | 39.79905 | -74.73265 | 10751 ft | 397 kts | 70° |
| 2026-05-07 05:05 | 39.81269 | -74.70146 | 10902 ft | 409 kts | 49° |
| 2026-05-07 05:05 | 39.83269 | -74.67464 | 11226 ft | 414 kts | 39° |
| 2026-05-07 05:05 | 39.85502 | -74.65093 | 11701 ft | 415 kts | 34° |